Ibiza Aeropuerto en Baleares

latitud = 38° 52' 35''N | longitud = 0014° 23' 04''E
6 metros sobre el nivel del mar |

Fecha, hora, temperatura, viento dirección y velocidad, humedad y presión.

  • 25-09-2017 00:00:00 | 22.50°C | Sudoeste |14.00 km/h | 85.00% | 1017.90 hPa
  • 24-09-2017 23:00:00 | 22.60°C | Sudoeste |14.00 km/h | 85.00% | 1018.10 hPa
  • 24-09-2017 22:00:00 | 22.70°C | Sudoeste |14.00 km/h | 84.00% | 1018.00 hPa
  • 24-09-2017 21:00:00 | 22.70°C | Sudoeste |14.00 km/h | 82.00% | 1017.80 hPa
  • 24-09-2017 20:00:00 | 22.90°C | Sur |13.00 km/h | 80.00% | 1017.50 hPa
  • 24-09-2017 19:00:00 | 23.90°C | Sudoeste |18.00 km/h | 75.00% | 1017.60 hPa
  • 24-09-2017 18:00:00 | 24.50°C | Sudoeste |19.00 km/h | 72.00% | 1017.80 hPa
  • 24-09-2017 17:00:00 | 24.90°C | Sudoeste |18.00 km/h | 69.00% | 1018.10 hPa
  • 24-09-2017 16:00:00 | 25.30°C | Sudoeste |20.00 km/h | 67.00% | 1018.60 hPa
  • 24-09-2017 15:00:00 | 25.00°C | Sudoeste |20.00 km/h | 69.00% | 1018.70 hPa
  • 24-09-2017 14:00:00 | 24.90°C | Sudoeste |16.00 km/h | 68.00% | 1019.00 hPa
  • 24-09-2017 13:00:00 | 24.50°C | Sudoeste |13.00 km/h | 70.00% | 1019.40 hPa
  • 24-09-2017 12:00:00 | 24.50°C | Sur |14.00 km/h | 72.00% | 1019.60 hPa
  • 24-09-2017 11:00:00 | 23.20°C | Sur |13.00 km/h | 76.00% | 1019.60 hPa
  • 24-09-2017 10:00:00 | 22.40°C | Sudoeste |3.00 km/h | 80.00% | 1019.30 hPa
  • 24-09-2017 09:00:00 | 19.30°C | Calma |0.00 km/h | 89.00% | 1018.80 hPa
  • 24-09-2017 08:00:00 | 16.90°C | Noroeste |5.00 km/h | 95.00% | 1018.30 hPa
  • 24-09-2017 07:00:00 | 17.00°C | Noroeste |7.00 km/h | 95.00% | 1018.00 hPa
  • 24-09-2017 06:00:00 | 16.40°C | Calma |0.00 km/h | 96.00% | 1018.20 hPa
  • 24-09-2017 05:00:00 | 17.40°C | Noroeste |4.00 km/h | 94.00% | 1018.20 hPa
  • 24-09-2017 04:00:00 | 17.10°C | Calma |0.00 km/h | 95.00% | 1018.60 hPa
  • 24-09-2017 03:00:00 | 17.90°C | Noroeste |5.00 km/h | 92.00% | 1018.90 hPa
  • 24-09-2017 02:00:00 | 17.50°C | Calma |0.00 km/h | 92.00% | 1019.00 hPa
  • 24-09-2017 01:00:00 | 18.20°C | Calma |0.00 km/h | 89.00% | 1019.00 hPa
    • Datos gráficos mensuales de Ibiza Aeropuerto: